sensor_id;sensor_type;location;lat;lon;timestamp;P1;durP1;ratioP1;P2;durP2;ratioP2
6505;SDS011;3286;49.858;8.768;2022-12-15T00:02:02;17.33;;;8.07;;
6505;SDS011;3286;49.858;8.768;2022-12-15T00:04:50;16.53;;;8.73;;
6505;SDS011;3286;49.858;8.768;2022-12-15T00:07:36;17.50;;;9.63;;
6505;SDS011;3286;49.858;8.768;2022-12-15T00:10:20;16.27;;;9.37;;
6505;SDS011;3286;49.858;8.768;2022-12-15T00:13:08;17.33;;;9.73;;
6505;SDS011;3286;49.858;8.768;2022-12-15T00:15:55;16.17;;;9.40;;
6505;SDS011;3286;49.858;8.768;2022-12-15T00:18:40;18.93;;;9.60;;
6505;SDS011;3286;49.858;8.768;2022-12-15T00:21:30;18.50;;;9.80;;
6505;SDS011;3286;49.858;8.768;2022-12-15T00:24:14;17.10;;;9.30;;
6505;SDS011;3286;49.858;8.768;2022-12-15T00:27:00;18.53;;;9.17;;
6505;SDS011;3286;49.858;8.768;2022-12-15T00:29:48;20.67;;;9.70;;
6505;SDS011;3286;49.858;8.768;2022-12-15T00:32:31;17.27;;;9.17;;
6505;SDS011;3286;49.858;8.768;2022-12-15T00:35:17;19.43;;;8.93;;
6505;SDS011;3286;49.858;8.768;2022-12-15T00:38:06;18.50;;;9.73;;
6505;SDS011;3286;49.858;8.768;2022-12-15T00:40:51;19.10;;;9.53;;
6505;SDS011;3286;49.858;8.768;2022-12-15T00:43:23;18.23;;;9.63;;
6505;SDS011;3286;49.858;8.768;2022-12-15T00:45:53;18.67;;;10.00;;
6505;SDS011;3286;49.858;8.768;2022-12-15T00:48:47;20.00;;;10.10;;
6505;SDS011;3286;49.858;8.768;2022-12-15T00:51:14;17.47;;;9.87;;
6505;SDS011;3286;49.858;8.768;2022-12-15T00:54:13;15.20;;;9.07;;
6505;SDS011;3286;49.858;8.768;2022-12-15T00:56:57;18.63;;;9.00;;
6505;SDS011;3286;49.858;8.768;2022-12-15T00:59:41;19.47;;;10.33;;
6505;SDS011;3286;49.858;8.768;2022-12-15T01:02:25;19.73;;;9.10;;
6505;SDS011;3286;49.858;8.768;2022-12-15T01:05:09;18.47;;;9.90;;
6505;SDS011;3286;49.858;8.768;2022-12-15T01:07:53;16.43;;;8.97;;
6505;SDS011;3286;49.858;8.768;2022-12-15T01:10:39;19.47;;;10.20;;
6505;SDS011;3286;49.858;8.768;2022-12-15T01:13:25;18.40;;;9.50;;
6505;SDS011;3286;49.858;8.768;2022-12-15T01:16:09;18.93;;;9.23;;
6505;SDS011;3286;49.858;8.768;2022-12-15T01:18:55;18.50;;;10.27;;
6505;SDS011;3286;49.858;8.768;2022-12-15T01:21:39;14.90;;;9.10;;
6505;SDS011;3286;49.858;8.768;2022-12-15T01:24:06;18.07;;;10.23;;
6505;SDS011;3286;49.858;8.768;2022-12-15T01:26:34;16.23;;;8.70;;
6505;SDS011;3286;49.858;8.768;2022-12-15T01:29:00;17.23;;;8.43;;
6505;SDS011;3286;49.858;8.768;2022-12-15T01:31:27;14.77;;;8.47;;
6505;SDS011;3286;49.858;8.768;2022-12-15T01:33:55;18.13;;;9.30;;
6505;SDS011;3286;49.858;8.768;2022-12-15T01:36:22;17.50;;;9.10;;
6505;SDS011;3286;49.858;8.768;2022-12-15T01:38:53;17.20;;;8.40;;
6505;SDS011;3286;49.858;8.768;2022-12-15T01:41:19;15.63;;;8.97;;
6505;SDS011;3286;49.858;8.768;2022-12-15T01:43:49;14.40;;;8.10;;
6505;SDS011;3286;49.858;8.768;2022-12-15T01:46:16;17.00;;;8.90;;
6505;SDS011;3286;49.858;8.768;2022-12-15T01:48:48;17.40;;;9.70;;
6505;SDS011;3286;49.858;8.768;2022-12-15T01:51:23;17.73;;;8.87;;
6505;SDS011;3286;49.858;8.768;2022-12-15T01:53:55;19.53;;;9.60;;
6505;SDS011;3286;49.858;8.768;2022-12-15T01:56:25;15.73;;;8.70;;
6505;SDS011;3286;49.858;8.768;2022-12-15T01:58:55;17.07;;;9.83;;
6505;SDS011;3286;49.858;8.768;2022-12-15T02:01:25;16.53;;;8.97;;
6505;SDS011;3286;49.858;8.768;2022-12-15T02:03:56;17.33;;;8.90;;
6505;SDS011;3286;49.858;8.768;2022-12-15T02:06:22;21.20;;;10.17;;
6505;SDS011;3286;49.858;8.768;2022-12-15T02:08:52;19.77;;;9.20;;
6505;SDS011;3286;49.858;8.768;2022-12-15T02:14:25;17.23;;;9.57;;
6505;SDS011;3286;49.858;8.768;2022-12-15T02:17:12;19.40;;;9.37;;
6505;SDS011;3286;49.858;8.768;2022-12-15T02:23:11;14.13;;;7.93;;
6505;SDS011;3286;49.858;8.768;2022-12-15T02:29:16;13.03;;;8.03;;
6505;SDS011;3286;49.858;8.768;2022-12-15T02:32:03;16.23;;;9.07;;
6505;SDS011;3286;49.858;8.768;2022-12-15T02:34:37;15.87;;;8.63;;
6505;SDS011;3286;49.858;8.768;2022-12-15T02:37:09;16.53;;;9.10;;
6505;SDS011;3286;49.858;8.768;2022-12-15T02:39:39;26.37;;;9.10;;
6505;SDS011;3286;49.858;8.768;2022-12-15T02:42:07;16.23;;;8.73;;
6505;SDS011;3286;49.858;8.768;2022-12-15T02:44:35;14.67;;;8.40;;
6505;SDS011;3286;49.858;8.768;2022-12-15T02:47:14;15.00;;;8.53;;
6505;SDS011;3286;49.858;8.768;2022-12-15T02:49:55;14.77;;;7.80;;
6505;SDS011;3286;49.858;8.768;2022-12-15T02:52:41;15.30;;;8.43;;
6505;SDS011;3286;49.858;8.768;2022-12-15T02:55:18;15.10;;;8.07;;
6505;SDS011;3286;49.858;8.768;2022-12-15T02:57:53;14.60;;;8.27;;
6505;SDS011;3286;49.858;8.768;2022-12-15T03:00:26;17.70;;;8.77;;
6505;SDS011;3286;49.858;8.768;2022-12-15T03:02:56;14.93;;;8.80;;
6505;SDS011;3286;49.858;8.768;2022-12-15T03:05:24;17.87;;;8.67;;
6505;SDS011;3286;49.858;8.768;2022-12-15T03:07:54;15.67;;;8.17;;
6505;SDS011;3286;49.858;8.768;2022-12-15T03:10:21;17.00;;;9.47;;
6505;SDS011;3286;49.858;8.768;2022-12-15T03:12:49;18.87;;;9.50;;
6505;SDS011;3286;49.858;8.768;2022-12-15T03:15:17;15.27;;;8.77;;
6505;SDS011;3286;49.858;8.768;2022-12-15T03:17:47;16.80;;;8.90;;
6505;SDS011;3286;49.858;8.768;2022-12-15T03:20:18;19.43;;;9.10;;
6505;SDS011;3286;49.858;8.768;2022-12-15T03:22:48;18.47;;;8.93;;
6505;SDS011;3286;49.858;8.768;2022-12-15T03:25:14;16.73;;;8.40;;
6505;SDS011;3286;49.858;8.768;2022-12-15T03:27:41;17.03;;;9.13;;
6505;SDS011;3286;49.858;8.768;2022-12-15T03:30:12;17.27;;;8.70;;
6505;SDS011;3286;49.858;8.768;2022-12-15T03:32:42;13.73;;;8.33;;
6505;SDS011;3286;49.858;8.768;2022-12-15T03:35:14;16.10;;;8.67;;
6505;SDS011;3286;49.858;8.768;2022-12-15T03:37:42;17.57;;;8.13;;
6505;SDS011;3286;49.858;8.768;2022-12-15T03:40:10;16.33;;;8.13;;
6505;SDS011;3286;49.858;8.768;2022-12-15T03:42:37;16.83;;;8.50;;
6505;SDS011;3286;49.858;8.768;2022-12-15T03:45:13;14.07;;;7.67;;
6505;SDS011;3286;49.858;8.768;2022-12-15T03:47:40;14.97;;;8.20;;
6505;SDS011;3286;49.858;8.768;2022-12-15T03:50:07;15.97;;;7.80;;
6505;SDS011;3286;49.858;8.768;2022-12-15T03:52:35;17.87;;;8.57;;
6505;SDS011;3286;49.858;8.768;2022-12-15T03:55:04;12.67;;;6.70;;
6505;SDS011;3286;49.858;8.768;2022-12-15T03:57:33;14.87;;;8.07;;
6505;SDS011;3286;49.858;8.768;2022-12-15T04:00:01;11.77;;;7.20;;
6505;SDS011;3286;49.858;8.768;2022-12-15T04:02:32;12.70;;;7.23;;
6505;SDS011;3286;49.858;8.768;2022-12-15T04:04:58;14.57;;;7.83;;
6505;SDS011;3286;49.858;8.768;2022-12-15T04:07:25;17.63;;;8.50;;
6505;SDS011;3286;49.858;8.768;2022-12-15T04:09:53;13.57;;;7.27;;
6505;SDS011;3286;49.858;8.768;2022-12-15T04:12:21;14.60;;;8.13;;
6505;SDS011;3286;49.858;8.768;2022-12-15T04:14:48;13.37;;;7.23;;
6505;SDS011;3286;49.858;8.768;2022-12-15T04:17:14;14.27;;;8.03;;
6505;SDS011;3286;49.858;8.768;2022-12-15T04:19:41;16.30;;;7.17;;
6505;SDS011;3286;49.858;8.768;2022-12-15T04:22:25;14.90;;;7.23;;
6505;SDS011;3286;49.858;8.768;2022-12-15T04:24:54;16.27;;;7.47;;
6505;SDS011;3286;49.858;8.768;2022-12-15T04:27:42;14.50;;;7.77;;
6505;SDS011;3286;49.858;8.768;2022-12-15T04:30:27;17.90;;;7.83;;
6505;SDS011;3286;49.858;8.768;2022-12-15T04:33:12;16.93;;;7.10;;
6505;SDS011;3286;49.858;8.768;2022-12-15T04:35:57;13.47;;;8.13;;
6505;SDS011;3286;49.858;8.768;2022-12-15T04:38:44;13.53;;;7.23;;
6505;SDS011;3286;49.858;8.768;2022-12-15T04:41:29;12.20;;;6.57;;
6505;SDS011;3286;49.858;8.768;2022-12-15T04:44:16;14.53;;;7.43;;
6505;SDS011;3286;49.858;8.768;2022-12-15T04:47:01;13.87;;;7.63;;
6505;SDS011;3286;49.858;8.768;2022-12-15T04:49:44;12.50;;;7.33;;
6505;SDS011;3286;49.858;8.768;2022-12-15T04:52:31;14.27;;;7.60;;
6505;SDS011;3286;49.858;8.768;2022-12-15T04:55:15;17.30;;;7.80;;
6505;SDS011;3286;49.858;8.768;2022-12-15T04:58:03;13.50;;;8.23;;
6505;SDS011;3286;49.858;8.768;2022-12-15T05:00:51;15.80;;;8.37;;
6505;SDS011;3286;49.858;8.768;2022-12-15T05:03:36;14.87;;;7.07;;
6505;SDS011;3286;49.858;8.768;2022-12-15T05:06:20;15.83;;;7.77;;
6505;SDS011;3286;49.858;8.768;2022-12-15T05:09:04;14.57;;;7.90;;
6505;SDS011;3286;49.858;8.768;2022-12-15T05:11:48;16.67;;;8.53;;
6505;SDS011;3286;49.858;8.768;2022-12-15T05:14:32;12.03;;;7.63;;
6505;SDS011;3286;49.858;8.768;2022-12-15T05:17:18;16.80;;;7.93;;
6505;SDS011;3286;49.858;8.768;2022-12-15T05:20:04;16.53;;;7.80;;
6505;SDS011;3286;49.858;8.768;2022-12-15T05:22:52;15.37;;;7.87;;
6505;SDS011;3286;49.858;8.768;2022-12-15T05:25:38;13.60;;;8.03;;
6505;SDS011;3286;49.858;8.768;2022-12-15T05:28:24;11.77;;;6.83;;
6505;SDS011;3286;49.858;8.768;2022-12-15T05:31:11;12.83;;;6.60;;
6505;SDS011;3286;49.858;8.768;2022-12-15T05:33:57;16.43;;;7.93;;
6505;SDS011;3286;49.858;8.768;2022-12-15T05:36:25;13.87;;;7.73;;
6505;SDS011;3286;49.858;8.768;2022-12-15T05:38:56;17.30;;;8.20;;
6505;SDS011;3286;49.858;8.768;2022-12-15T05:41:25;15.60;;;8.07;;
6505;SDS011;3286;49.858;8.768;2022-12-15T05:43:57;14.10;;;7.13;;
6505;SDS011;3286;49.858;8.768;2022-12-15T05:46:28;16.50;;;8.27;;
6505;SDS011;3286;49.858;8.768;2022-12-15T05:48:55;12.47;;;6.50;;
6505;SDS011;3286;49.858;8.768;2022-12-15T05:51:22;16.30;;;7.37;;
6505;SDS011;3286;49.858;8.768;2022-12-15T05:53:51;16.10;;;7.83;;
6505;SDS011;3286;49.858;8.768;2022-12-15T05:56:23;17.37;;;7.47;;
6505;SDS011;3286;49.858;8.768;2022-12-15T05:58:50;16.07;;;8.03;;
6505;SDS011;3286;49.858;8.768;2022-12-15T06:01:20;17.53;;;7.80;;
6505;SDS011;3286;49.858;8.768;2022-12-15T06:03:50;12.80;;;7.30;;
6505;SDS011;3286;49.858;8.768;2022-12-15T06:06:19;14.27;;;7.60;;
6505;SDS011;3286;49.858;8.768;2022-12-15T06:08:47;17.77;;;7.97;;
6505;SDS011;3286;49.858;8.768;2022-12-15T06:11:14;20.30;;;8.20;;
6505;SDS011;3286;49.858;8.768;2022-12-15T06:13:43;24.67;;;7.47;;
6505;SDS011;3286;49.858;8.768;2022-12-15T06:16:12;15.00;;;8.10;;
6505;SDS011;3286;49.858;8.768;2022-12-15T06:18:43;16.23;;;7.23;;
6505;SDS011;3286;49.858;8.768;2022-12-15T06:21:18;17.67;;;8.77;;
6505;SDS011;3286;49.858;8.768;2022-12-15T06:23:48;15.73;;;7.53;;
6505;SDS011;3286;49.858;8.768;2022-12-15T06:26:17;16.47;;;7.37;;
6505;SDS011;3286;49.858;8.768;2022-12-15T06:28:47;18.73;;;8.20;;
6505;SDS011;3286;49.858;8.768;2022-12-15T06:31:15;13.63;;;7.20;;
6505;SDS011;3286;49.858;8.768;2022-12-15T06:33:48;14.43;;;7.37;;
6505;SDS011;3286;49.858;8.768;2022-12-15T06:36:16;13.53;;;6.57;;
6505;SDS011;3286;49.858;8.768;2022-12-15T06:38:44;15.50;;;7.43;;
6505;SDS011;3286;49.858;8.768;2022-12-15T06:41:15;15.43;;;7.73;;
6505;SDS011;3286;49.858;8.768;2022-12-15T06:43:47;16.43;;;8.40;;
6505;SDS011;3286;49.858;8.768;2022-12-15T06:46:14;12.10;;;6.60;;
6505;SDS011;3286;49.858;8.768;2022-12-15T06:48:42;12.20;;;6.23;;
6505;SDS011;3286;49.858;8.768;2022-12-15T06:51:10;13.70;;;7.40;;
6505;SDS011;3286;49.858;8.768;2022-12-15T06:53:39;12.90;;;7.27;;
6505;SDS011;3286;49.858;8.768;2022-12-15T06:56:15;12.43;;;6.57;;
6505;SDS011;3286;49.858;8.768;2022-12-15T06:58:44;10.37;;;6.70;;
6505;SDS011;3286;49.858;8.768;2022-12-15T07:01:12;13.20;;;7.20;;
6505;SDS011;3286;49.858;8.768;2022-12-15T07:03:42;15.70;;;7.43;;
6505;SDS011;3286;49.858;8.768;2022-12-15T07:06:12;14.07;;;6.90;;
6505;SDS011;3286;49.858;8.768;2022-12-15T07:08:47;12.73;;;6.93;;
6505;SDS011;3286;49.858;8.768;2022-12-15T07:11:20;11.73;;;6.40;;
6505;SDS011;3286;49.858;8.768;2022-12-15T07:13:48;15.93;;;7.87;;
6505;SDS011;3286;49.858;8.768;2022-12-15T07:16:15;14.17;;;7.43;;
6505;SDS011;3286;49.858;8.768;2022-12-15T07:18:41;13.20;;;6.83;;
6505;SDS011;3286;49.858;8.768;2022-12-15T07:21:08;13.57;;;6.70;;
6505;SDS011;3286;49.858;8.768;2022-12-15T07:23:36;10.97;;;6.20;;
6505;SDS011;3286;49.858;8.768;2022-12-15T07:26:05;14.70;;;7.30;;
6505;SDS011;3286;49.858;8.768;2022-12-15T07:28:35;13.40;;;6.43;;
6505;SDS011;3286;49.858;8.768;2022-12-15T07:31:03;15.83;;;6.37;;
6505;SDS011;3286;49.858;8.768;2022-12-15T07:33:31;15.03;;;7.10;;
6505;SDS011;3286;49.858;8.768;2022-12-15T07:35:59;12.53;;;6.73;;
6505;SDS011;3286;49.858;8.768;2022-12-15T07:38:29;14.70;;;6.77;;
6505;SDS011;3286;49.858;8.768;2022-12-15T07:40:58;12.87;;;6.30;;
6505;SDS011;3286;49.858;8.768;2022-12-15T07:43:26;11.87;;;6.90;;
6505;SDS011;3286;49.858;8.768;2022-12-15T07:45:55;24.83;;;8.23;;
6505;SDS011;3286;49.858;8.768;2022-12-15T07:48:25;14.00;;;7.67;;
6505;SDS011;3286;49.858;8.768;2022-12-15T07:50:56;17.13;;;7.67;;
6505;SDS011;3286;49.858;8.768;2022-12-15T07:53:25;14.70;;;7.80;;
6505;SDS011;3286;49.858;8.768;2022-12-15T07:55:53;17.03;;;8.43;;
6505;SDS011;3286;49.858;8.768;2022-12-15T07:58:23;20.33;;;7.60;;
6505;SDS011;3286;49.858;8.768;2022-12-15T08:00:52;19.40;;;8.90;;
6505;SDS011;3286;49.858;8.768;2022-12-15T08:03:26;19.80;;;8.00;;
6505;SDS011;3286;49.858;8.768;2022-12-15T08:05:56;19.30;;;8.33;;
6505;SDS011;3286;49.858;8.768;2022-12-15T08:08:23;21.83;;;9.83;;
6505;SDS011;3286;49.858;8.768;2022-12-15T08:10:49;19.63;;;9.93;;
6505;SDS011;3286;49.858;8.768;2022-12-15T08:13:17;25.83;;;10.67;;
6505;SDS011;3286;49.858;8.768;2022-12-15T08:15:44;21.10;;;10.27;;
6505;SDS011;3286;49.858;8.768;2022-12-15T08:18:11;26.73;;;10.83;;
6505;SDS011;3286;49.858;8.768;2022-12-15T08:20:39;21.47;;;10.13;;
6505;SDS011;3286;49.858;8.768;2022-12-15T08:23:06;23.20;;;11.40;;
6505;SDS011;3286;49.858;8.768;2022-12-15T08:25:33;25.40;;;11.07;;
6505;SDS011;3286;49.858;8.768;2022-12-15T08:28:01;21.53;;;10.97;;
6505;SDS011;3286;49.858;8.768;2022-12-15T08:30:29;24.27;;;10.77;;
6505;SDS011;3286;49.858;8.768;2022-12-15T08:32:58;21.10;;;10.07;;
6505;SDS011;3286;49.858;8.768;2022-12-15T08:35:24;22.20;;;10.47;;
6505;SDS011;3286;49.858;8.768;2022-12-15T08:37:54;19.47;;;11.20;;
6505;SDS011;3286;49.858;8.768;2022-12-15T08:40:22;21.53;;;10.73;;
6505;SDS011;3286;49.858;8.768;2022-12-15T08:42:52;19.50;;;10.20;;
6505;SDS011;3286;49.858;8.768;2022-12-15T08:45:20;24.90;;;11.47;;
6505;SDS011;3286;49.858;8.768;2022-12-15T08:47:47;24.17;;;10.97;;
6505;SDS011;3286;49.858;8.768;2022-12-15T08:50:15;24.87;;;10.47;;
6505;SDS011;3286;49.858;8.768;2022-12-15T08:52:42;22.00;;;10.63;;
6505;SDS011;3286;49.858;8.768;2022-12-15T08:55:14;20.00;;;10.37;;
6505;SDS011;3286;49.858;8.768;2022-12-15T08:57:40;25.00;;;10.73;;
6505;SDS011;3286;49.858;8.768;2022-12-15T09:00:08;37.50;;;13.00;;
6505;SDS011;3286;49.858;8.768;2022-12-15T09:02:35;27.97;;;11.83;;
6505;SDS011;3286;49.858;8.768;2022-12-15T09:05:04;21.80;;;10.87;;
6505;SDS011;3286;49.858;8.768;2022-12-15T09:07:31;23.77;;;11.30;;
6505;SDS011;3286;49.858;8.768;2022-12-15T09:10:00;35.20;;;11.43;;
6505;SDS011;3286;49.858;8.768;2022-12-15T09:12:28;24.00;;;11.40;;
6505;SDS011;3286;49.858;8.768;2022-12-15T09:14:55;27.27;;;12.53;;
6505;SDS011;3286;49.858;8.768;2022-12-15T09:17:21;25.33;;;11.40;;
6505;SDS011;3286;49.858;8.768;2022-12-15T09:19:50;31.53;;;13.50;;
6505;SDS011;3286;49.858;8.768;2022-12-15T09:22:17;32.70;;;12.20;;
6505;SDS011;3286;49.858;8.768;2022-12-15T09:24:43;32.23;;;14.20;;
6505;SDS011;3286;49.858;8.768;2022-12-15T09:27:11;32.20;;;12.60;;
6505;SDS011;3286;49.858;8.768;2022-12-15T09:29:38;33.17;;;14.00;;
6505;SDS011;3286;49.858;8.768;2022-12-15T09:32:05;42.00;;;13.93;;
6505;SDS011;3286;49.858;8.768;2022-12-15T09:34:32;38.40;;;13.90;;
6505;SDS011;3286;49.858;8.768;2022-12-15T09:36:59;31.40;;;13.77;;
6505;SDS011;3286;49.858;8.768;2022-12-15T09:39:28;34.10;;;14.13;;
6505;SDS011;3286;49.858;8.768;2022-12-15T09:41:58;31.17;;;14.67;;
6505;SDS011;3286;49.858;8.768;2022-12-15T09:44:27;30.67;;;13.70;;
6505;SDS011;3286;49.858;8.768;2022-12-15T09:47:02;26.80;;;12.83;;
6505;SDS011;3286;49.858;8.768;2022-12-15T09:52:21;33.13;;;12.87;;
6505;SDS011;3286;49.858;8.768;2022-12-15T09:54:50;28.40;;;13.27;;
6505;SDS011;3286;49.858;8.768;2022-12-15T09:57:27;29.90;;;12.53;;
6505;SDS011;3286;49.858;8.768;2022-12-15T10:00:08;31.33;;;13.13;;
6505;SDS011;3286;49.858;8.768;2022-12-15T10:02:49;33.77;;;13.53;;
6505;SDS011;3286;49.858;8.768;2022-12-15T10:05:37;31.83;;;13.23;;
6505;SDS011;3286;49.858;8.768;2022-12-15T10:08:12;27.97;;;14.07;;
6505;SDS011;3286;49.858;8.768;2022-12-15T10:10:40;32.30;;;13.77;;
6505;SDS011;3286;49.858;8.768;2022-12-15T10:13:10;30.07;;;14.87;;
6505;SDS011;3286;49.858;8.768;2022-12-15T10:15:43;32.70;;;14.30;;
6505;SDS011;3286;49.858;8.768;2022-12-15T10:18:19;36.10;;;15.07;;
6505;SDS011;3286;49.858;8.768;2022-12-15T10:20:50;32.40;;;14.43;;
6505;SDS011;3286;49.858;8.768;2022-12-15T10:23:18;35.77;;;14.43;;
6505;SDS011;3286;49.858;8.768;2022-12-15T10:25:49;34.10;;;14.60;;
6505;SDS011;3286;49.858;8.768;2022-12-15T10:28:38;30.27;;;15.00;;
6505;SDS011;3286;49.858;8.768;2022-12-15T10:31:17;29.03;;;14.13;;
6505;SDS011;3286;49.858;8.768;2022-12-15T10:33:53;30.93;;;14.70;;
6505;SDS011;3286;49.858;8.768;2022-12-15T10:36:28;38.83;;;14.37;;
6505;SDS011;3286;49.858;8.768;2022-12-15T10:38:55;37.97;;;15.80;;
6505;SDS011;3286;49.858;8.768;2022-12-15T10:41:22;32.77;;;14.73;;
6505;SDS011;3286;49.858;8.768;2022-12-15T10:43:51;25.70;;;13.10;;
6505;SDS011;3286;49.858;8.768;2022-12-15T10:46:19;31.40;;;14.23;;
6505;SDS011;3286;49.858;8.768;2022-12-15T10:48:48;26.50;;;14.10;;
6505;SDS011;3286;49.858;8.768;2022-12-15T10:51:22;25.30;;;13.33;;
6505;SDS011;3286;49.858;8.768;2022-12-15T10:54:02;28.07;;;14.30;;
6505;SDS011;3286;49.858;8.768;2022-12-15T10:56:44;27.83;;;14.13;;
6505;SDS011;3286;49.858;8.768;2022-12-15T10:59:21;30.37;;;14.83;;
6505;SDS011;3286;49.858;8.768;2022-12-15T11:01:51;33.60;;;15.20;;
6505;SDS011;3286;49.858;8.768;2022-12-15T11:04:26;33.30;;;15.40;;
6505;SDS011;3286;49.858;8.768;2022-12-15T11:06:57;31.90;;;15.43;;
6505;SDS011;3286;49.858;8.768;2022-12-15T11:09:26;24.47;;;13.40;;
6505;SDS011;3286;49.858;8.768;2022-12-15T11:11:57;28.97;;;14.23;;
6505;SDS011;3286;49.858;8.768;2022-12-15T11:14:42;25.93;;;14.07;;
6505;SDS011;3286;49.858;8.768;2022-12-15T11:17:12;31.50;;;14.03;;
6505;SDS011;3286;49.858;8.768;2022-12-15T11:19:47;27.40;;;13.90;;
6505;SDS011;3286;49.858;8.768;2022-12-15T11:22:22;27.20;;;13.03;;
6505;SDS011;3286;49.858;8.768;2022-12-15T11:24:57;24.63;;;13.13;;
6505;SDS011;3286;49.858;8.768;2022-12-15T11:27:29;25.57;;;13.03;;
6505;SDS011;3286;49.858;8.768;2022-12-15T11:30:03;27.53;;;14.07;;
6505;SDS011;3286;49.858;8.768;2022-12-15T11:32:40;28.10;;;14.10;;
6505;SDS011;3286;49.858;8.768;2022-12-15T11:35:14;31.47;;;14.27;;
6505;SDS011;3286;49.858;8.768;2022-12-15T11:37:44;29.77;;;15.37;;
6505;SDS011;3286;49.858;8.768;2022-12-15T11:40:32;26.07;;;14.30;;
6505;SDS011;3286;49.858;8.768;2022-12-15T11:43:07;28.63;;;14.90;;
6505;SDS011;3286;49.858;8.768;2022-12-15T11:45:55;25.87;;;14.13;;
6505;SDS011;3286;49.858;8.768;2022-12-15T11:48:34;35.23;;;13.00;;
6505;SDS011;3286;49.858;8.768;2022-12-15T11:51:15;27.90;;;12.97;;
6505;SDS011;3286;49.858;8.768;2022-12-15T11:53:58;25.67;;;13.20;;
6505;SDS011;3286;49.858;8.768;2022-12-15T11:56:37;27.00;;;13.37;;
6505;SDS011;3286;49.858;8.768;2022-12-15T12:02:15;27.97;;;14.67;;
6505;SDS011;3286;49.858;8.768;2022-12-15T12:05:00;30.30;;;13.87;;
6505;SDS011;3286;49.858;8.768;2022-12-15T12:07:43;28.23;;;15.40;;
6505;SDS011;3286;49.858;8.768;2022-12-15T12:10:19;27.37;;;13.67;;
6505;SDS011;3286;49.858;8.768;2022-12-15T12:12:59;26.70;;;14.57;;
6505;SDS011;3286;49.858;8.768;2022-12-15T12:15:34;31.67;;;14.77;;
6505;SDS011;3286;49.858;8.768;2022-12-15T12:18:12;34.63;;;15.57;;
6505;SDS011;3286;49.858;8.768;2022-12-15T12:20:46;27.13;;;14.27;;
6505;SDS011;3286;49.858;8.768;2022-12-15T12:23:21;29.67;;;15.17;;
6505;SDS011;3286;49.858;8.768;2022-12-15T12:25:56;27.60;;;14.20;;
6505;SDS011;3286;49.858;8.768;2022-12-15T12:28:32;30.87;;;15.27;;
6505;SDS011;3286;49.858;8.768;2022-12-15T12:31:08;32.50;;;16.13;;
6505;SDS011;3286;49.858;8.768;2022-12-15T12:33:57;32.30;;;14.77;;
6505;SDS011;3286;49.858;8.768;2022-12-15T12:36:33;31.37;;;16.23;;
6505;SDS011;3286;49.858;8.768;2022-12-15T12:39:04;29.10;;;14.10;;
6505;SDS011;3286;49.858;8.768;2022-12-15T12:41:35;32.47;;;15.13;;
6505;SDS011;3286;49.858;8.768;2022-12-15T12:44:13;28.70;;;14.07;;
6505;SDS011;3286;49.858;8.768;2022-12-15T12:46:53;30.97;;;14.50;;
6505;SDS011;3286;49.858;8.768;2022-12-15T12:49:25;32.53;;;15.67;;
6505;SDS011;3286;49.858;8.768;2022-12-15T12:51:59;33.67;;;15.50;;
6505;SDS011;3286;49.858;8.768;2022-12-15T12:54:42;33.40;;;15.53;;
6505;SDS011;3286;49.858;8.768;2022-12-15T12:57:36;27.37;;;15.60;;
6505;SDS011;3286;49.858;8.768;2022-12-15T13:00:12;31.63;;;14.30;;
6505;SDS011;3286;49.858;8.768;2022-12-15T13:02:46;29.90;;;14.90;;
6505;SDS011;3286;49.858;8.768;2022-12-15T13:05:37;31.60;;;14.17;;
6505;SDS011;3286;49.858;8.768;2022-12-15T13:08:15;29.50;;;14.43;;
6505;SDS011;3286;49.858;8.768;2022-12-15T13:10:47;33.10;;;15.03;;
6505;SDS011;3286;49.858;8.768;2022-12-15T13:13:40;28.53;;;13.97;;
6505;SDS011;3286;49.858;8.768;2022-12-15T13:16:10;32.57;;;14.43;;
6505;SDS011;3286;49.858;8.768;2022-12-15T13:18:54;33.97;;;15.77;;
6505;SDS011;3286;49.858;8.768;2022-12-15T13:24:31;30.87;;;15.50;;
6505;SDS011;3286;49.858;8.768;2022-12-15T13:29:56;32.77;;;15.17;;
6505;SDS011;3286;49.858;8.768;2022-12-15T13:32:28;35.03;;;14.97;;
6505;SDS011;3286;49.858;8.768;2022-12-15T13:34:59;31.33;;;15.47;;
6505;SDS011;3286;49.858;8.768;2022-12-15T13:37:47;32.23;;;15.53;;
6505;SDS011;3286;49.858;8.768;2022-12-15T13:40:26;33.10;;;15.03;;
6505;SDS011;3286;49.858;8.768;2022-12-15T13:43:00;33.67;;;15.10;;
6505;SDS011;3286;49.858;8.768;2022-12-15T13:45:45;31.57;;;15.97;;
6505;SDS011;3286;49.858;8.768;2022-12-15T13:48:17;30.10;;;14.83;;
6505;SDS011;3286;49.858;8.768;2022-12-15T13:51:02;34.67;;;16.40;;
6505;SDS011;3286;49.858;8.768;2022-12-15T13:53:36;28.77;;;15.10;;
6505;SDS011;3286;49.858;8.768;2022-12-15T13:56:16;32.07;;;15.80;;
6505;SDS011;3286;49.858;8.768;2022-12-15T13:58:52;34.30;;;15.10;;
6505;SDS011;3286;49.858;8.768;2022-12-15T14:01:25;37.03;;;14.80;;
6505;SDS011;3286;49.858;8.768;2022-12-15T14:04:05;37.23;;;16.40;;
6505;SDS011;3286;49.858;8.768;2022-12-15T14:06:37;35.37;;;17.17;;
6505;SDS011;3286;49.858;8.768;2022-12-15T14:09:10;37.60;;;16.07;;
6505;SDS011;3286;49.858;8.768;2022-12-15T14:11:40;34.40;;;16.07;;
6505;SDS011;3286;49.858;8.768;2022-12-15T14:14:12;34.70;;;16.07;;
6505;SDS011;3286;49.858;8.768;2022-12-15T14:16:54;37.87;;;16.23;;
6505;SDS011;3286;49.858;8.768;2022-12-15T14:19:23;31.77;;;15.47;;
6505;SDS011;3286;49.858;8.768;2022-12-15T14:21:50;31.20;;;16.57;;
6505;SDS011;3286;49.858;8.768;2022-12-15T14:24:25;33.37;;;15.43;;
6505;SDS011;3286;49.858;8.768;2022-12-15T14:26:55;37.73;;;17.10;;
6505;SDS011;3286;49.858;8.768;2022-12-15T14:29:33;33.33;;;16.57;;
6505;SDS011;3286;49.858;8.768;2022-12-15T14:32:02;29.57;;;15.20;;
6505;SDS011;3286;49.858;8.768;2022-12-15T14:34:34;35.60;;;16.03;;
6505;SDS011;3286;49.858;8.768;2022-12-15T14:37:04;34.57;;;15.60;;
6505;SDS011;3286;49.858;8.768;2022-12-15T14:39:34;32.97;;;14.83;;
6505;SDS011;3286;49.858;8.768;2022-12-15T14:42:05;31.97;;;14.27;;
6505;SDS011;3286;49.858;8.768;2022-12-15T14:44:38;36.37;;;15.63;;
6505;SDS011;3286;49.858;8.768;2022-12-15T14:47:15;33.80;;;14.50;;
6505;SDS011;3286;49.858;8.768;2022-12-15T14:49:45;36.93;;;16.07;;
6505;SDS011;3286;49.858;8.768;2022-12-15T14:52:17;34.13;;;14.67;;
6505;SDS011;3286;49.858;8.768;2022-12-15T14:54:58;34.50;;;15.63;;
6505;SDS011;3286;49.858;8.768;2022-12-15T14:57:26;32.60;;;15.63;;
6505;SDS011;3286;49.858;8.768;2022-12-15T14:59:55;35.53;;;15.53;;
6505;SDS011;3286;49.858;8.768;2022-12-15T15:02:22;35.03;;;14.33;;
6505;SDS011;3286;49.858;8.768;2022-12-15T15:04:55;37.60;;;15.63;;
6505;SDS011;3286;49.858;8.768;2022-12-15T15:07:23;33.30;;;15.20;;
6505;SDS011;3286;49.858;8.768;2022-12-15T15:09:52;32.27;;;15.13;;
6505;SDS011;3286;49.858;8.768;2022-12-15T15:12:20;33.87;;;14.73;;
6505;SDS011;3286;49.858;8.768;2022-12-15T15:14:50;29.17;;;14.03;;
6505;SDS011;3286;49.858;8.768;2022-12-15T15:17:23;31.00;;;14.47;;
6505;SDS011;3286;49.858;8.768;2022-12-15T15:19:53;33.60;;;15.97;;
6505;SDS011;3286;49.858;8.768;2022-12-15T15:22:29;36.80;;;16.00;;
6505;SDS011;3286;49.858;8.768;2022-12-15T15:25:00;34.60;;;15.27;;
6505;SDS011;3286;49.858;8.768;2022-12-15T15:27:33;33.10;;;14.40;;
6505;SDS011;3286;49.858;8.768;2022-12-15T15:30:15;29.03;;;14.97;;
6505;SDS011;3286;49.858;8.768;2022-12-15T15:32:52;34.93;;;16.57;;
6505;SDS011;3286;49.858;8.768;2022-12-15T15:35:21;35.67;;;16.70;;
6505;SDS011;3286;49.858;8.768;2022-12-15T15:37:52;35.57;;;15.20;;
6505;SDS011;3286;49.858;8.768;2022-12-15T15:40:24;32.80;;;14.87;;
6505;SDS011;3286;49.858;8.768;2022-12-15T15:42:50;32.43;;;15.27;;
6505;SDS011;3286;49.858;8.768;2022-12-15T15:45:23;33.77;;;14.90;;
6505;SDS011;3286;49.858;8.768;2022-12-15T15:47:51;36.53;;;14.57;;
6505;SDS011;3286;49.858;8.768;2022-12-15T15:50:23;38.70;;;15.70;;
6505;SDS011;3286;49.858;8.768;2022-12-15T15:52:53;30.80;;;14.80;;
6505;SDS011;3286;49.858;8.768;2022-12-15T15:55:22;37.47;;;15.17;;
6505;SDS011;3286;49.858;8.768;2022-12-15T15:57:56;31.43;;;15.90;;